Alpine Airstrip, AK

4:13 PM AKDT on August 30, 2015 (GMT -0800)
Deadhorse Alpine Airstrip | | Change Station
CLOSE
Current Station
Airport
Location: Deadhorse Alpine Airstrip,
Elevation: 16 ft
Nearby Weather Stations

Elev 16 ft 70.34 °N, 150.94 °W | Updated 23 minutes ago

Overcast
Overcast
36 °F
Feels Like 26 °F
N
15
Wind Variable Wind from NNE

Today
High -- | Low -- °F
--% Chance of Precip.
Yesterday
High -- | Low -- °F
Precip. -- in
6:08 AM 9:57 PM
Full, 98% visible
Pressure 29.61 in
Visibility 10.0 miles
Clouds Mostly Cloudy 600 ft
Mostly Cloudy 700 ft
Overcast 1600 ft
Windchill 26 °F
Dew Point 32 °F
Humidity 87%
Rainfall 0.00 in
Snow Depth Not available.
UV 1 out of 12
Pollen Not available.
Air Quality Not available.
Flu Activity Not available.
METAR PALP 302350Z 03013KT 10SM BKN006 BKN007 OVC016 02/M00 A2961
Pressure 29.61 in
Visibility 10.0 miles
Clouds Mostly Cloudy 600 ft
Mostly Cloudy 700 ft
Overcast 1600 ft
Windchill 26 °F
Dew Point 32 °F
Humidity 87%
Rainfall 0.00 in
Snow Depth Not available.
UV 1 out of 12
Pollen Not available.
Air Quality Not available.
Flu Activity Not available.
METAR PALP 302350Z 03013KT 10SM BKN006 BKN007 OVC016 02/M00 A2961

10-Day Weather Forecast

×

Almanac

Astronomy

Aug. 30, 2015 Rise Set
Actual Time
Civil Twilight
Nautical Twilight
Astronomical Twilight
Moon
Length of Visible Light
Length of Day
Tomorrow will be .
, % of the Moon is Illuminated

Today's Extremes

State Highs State Lows

Community

WunderPhotos

Upload Photos

1,851,100 photos uploaded!

WunderBlogs® & News

Nearby

Air Quality

  Air Quality AQ Index Pollutant
Not available.

Snow Depth

Station Depth Elevation

Earthquake Activity

City Distance Mag. Time & Date
Minimum magnitude displayed is 2.5.

Coastal Water Temperatures

Place Temperature

Stations

Nearby Weather Stations

Station Location Temp. Windchill Dew Point Humidity Wind Precip. Elev Updated Type